sensor_id;sensor_type;location;lat;lon;timestamp;temperature;humidity
73277;DHT22;61501;43.316;5.372;2023-12-28T00:01:25;11.10;99.90
73277;DHT22;61501;43.316;5.372;2023-12-28T00:03:51;11.10;99.90
73277;DHT22;61501;43.316;5.372;2023-12-28T00:06:17;11.10;99.90
73277;DHT22;61501;43.316;5.372;2023-12-28T00:08:43;11.10;99.90
73277;DHT22;61501;43.316;5.372;2023-12-28T00:11:08;11.20;99.90
73277;DHT22;61501;43.316;5.372;2023-12-28T00:13:34;11.20;99.90
73277;DHT22;61501;43.316;5.372;2023-12-28T00:16:00;11.20;99.90
73277;DHT22;61501;43.316;5.372;2023-12-28T00:18:26;11.20;99.90
73277;DHT22;61501;43.316;5.372;2023-12-28T00:20:52;11.30;99.90
73277;DHT22;61501;43.316;5.372;2023-12-28T00:23:18;11.30;99.90
73277;DHT22;61501;43.316;5.372;2023-12-28T00:25:45;11.30;99.90
73277;DHT22;61501;43.316;5.372;2023-12-28T00:28:11;11.20;99.90
73277;DHT22;61501;43.316;5.372;2023-12-28T00:30:37;11.20;99.90
73277;DHT22;61501;43.316;5.372;2023-12-28T00:33:02;11.30;99.90
73277;DHT22;61501;43.316;5.372;2023-12-28T00:35:28;11.20;99.90
73277;DHT22;61501;43.316;5.372;2023-12-28T00:37:54;11.20;99.90
73277;DHT22;61501;43.316;5.372;2023-12-28T00:40:19;11.30;99.90
73277;DHT22;61501;43.316;5.372;2023-12-28T00:42:45;11.30;99.90
73277;DHT22;61501;43.316;5.372;2023-12-28T00:45:11;11.30;99.90
73277;DHT22;61501;43.316;5.372;2023-12-28T00:47:37;11.20;99.90
73277;DHT22;61501;43.316;5.372;2023-12-28T00:50:02;11.20;99.90
73277;DHT22;61501;43.316;5.372;2023-12-28T00:52:28;11.20;99.90
73277;DHT22;61501;43.316;5.372;2023-12-28T00:54:54;11.20;99.90
73277;DHT22;61501;43.316;5.372;2023-12-28T00:57:19;11.30;99.90
73277;DHT22;61501;43.316;5.372;2023-12-28T00:59:45;11.20;99.90
73277;DHT22;61501;43.316;5.372;2023-12-28T01:02:10;11.20;99.90
73277;DHT22;61501;43.316;5.372;2023-12-28T01:04:36;11.20;99.90
73277;DHT22;61501;43.316;5.372;2023-12-28T01:07:02;11.20;99.90
73277;DHT22;61501;43.316;5.372;2023-12-28T01:09:30;11.20;99.90
73277;DHT22;61501;43.316;5.372;2023-12-28T01:11:58;11.20;99.90
73277;DHT22;61501;43.316;5.372;2023-12-28T01:14:23;11.20;99.90
73277;DHT22;61501;43.316;5.372;2023-12-28T01:16:49;11.30;99.90
73277;DHT22;61501;43.316;5.372;2023-12-28T01:19:15;11.30;99.90
73277;DHT22;61501;43.316;5.372;2023-12-28T01:21:40;11.40;99.90
73277;DHT22;61501;43.316;5.372;2023-12-28T01:24:06;11.40;99.90
73277;DHT22;61501;43.316;5.372;2023-12-28T01:26:31;11.30;99.90
73277;DHT22;61501;43.316;5.372;2023-12-28T01:28:57;11.30;99.90
73277;DHT22;61501;43.316;5.372;2023-12-28T01:31:23;11.30;99.90
73277;DHT22;61501;43.316;5.372;2023-12-28T01:33:48;11.30;99.90
73277;DHT22;61501;43.316;5.372;2023-12-28T01:36:18;11.30;99.90
73277;DHT22;61501;43.316;5.372;2023-12-28T01:38:44;11.30;99.90
73277;DHT22;61501;43.316;5.372;2023-12-28T01:41:10;11.30;99.90
73277;DHT22;61501;43.316;5.372;2023-12-28T01:43:35;11.30;99.90
73277;DHT22;61501;43.316;5.372;2023-12-28T01:46:02;11.30;99.90
73277;DHT22;61501;43.316;5.372;2023-12-28T01:48:28;11.20;99.90
73277;DHT22;61501;43.316;5.372;2023-12-28T01:50:54;11.20;99.90
73277;DHT22;61501;43.316;5.372;2023-12-28T01:53:20;11.20;99.90
73277;DHT22;61501;43.316;5.372;2023-12-28T01:55:46;11.20;99.90
73277;DHT22;61501;43.316;5.372;2023-12-28T01:58:12;11.30;99.90
73277;DHT22;61501;43.316;5.372;2023-12-28T02:00:38;11.30;99.90
73277;DHT22;61501;43.316;5.372;2023-12-28T02:03:06;11.30;99.90
73277;DHT22;61501;43.316;5.372;2023-12-28T02:05:33;11.20;99.90
73277;DHT22;61501;43.316;5.372;2023-12-28T02:07:58;11.20;99.90
73277;DHT22;61501;43.316;5.372;2023-12-28T02:10:24;11.20;99.90
73277;DHT22;61501;43.316;5.372;2023-12-28T02:12:50;11.20;99.90
73277;DHT22;61501;43.316;5.372;2023-12-28T02:15:18;11.30;99.90
73277;DHT22;61501;43.316;5.372;2023-12-28T02:17:55;11.30;99.90
73277;DHT22;61501;43.316;5.372;2023-12-28T02:20:24;11.30;99.90
73277;DHT22;61501;43.316;5.372;2023-12-28T02:22:50;11.30;99.90
73277;DHT22;61501;43.316;5.372;2023-12-28T02:25:17;11.30;99.90
73277;DHT22;61501;43.316;5.372;2023-12-28T02:27:45;11.30;99.90
73277;DHT22;61501;43.316;5.372;2023-12-28T02:30:16;11.30;99.90
73277;DHT22;61501;43.316;5.372;2023-12-28T02:33:11;11.40;99.90
73277;DHT22;61501;43.316;5.372;2023-12-28T02:35:44;11.40;99.90
73277;DHT22;61501;43.316;5.372;2023-12-28T02:38:14;11.40;99.90
73277;DHT22;61501;43.316;5.372;2023-12-28T02:40:42;11.40;99.90
73277;DHT22;61501;43.316;5.372;2023-12-28T02:43:12;11.50;99.90
73277;DHT22;61501;43.316;5.372;2023-12-28T02:45:39;11.50;99.90
73277;DHT22;61501;43.316;5.372;2023-12-28T02:48:05;11.50;99.90
73277;DHT22;61501;43.316;5.372;2023-12-28T02:50:32;11.50;99.90
73277;DHT22;61501;43.316;5.372;2023-12-28T02:52:58;11.50;99.90
73277;DHT22;61501;43.316;5.372;2023-12-28T02:55:24;11.50;99.90
73277;DHT22;61501;43.316;5.372;2023-12-28T02:57:52;11.50;99.90
73277;DHT22;61501;43.316;5.372;2023-12-28T03:00:20;11.40;99.90
73277;DHT22;61501;43.316;5.372;2023-12-28T03:02:46;11.40;99.90
73277;DHT22;61501;43.316;5.372;2023-12-28T03:05:11;11.40;99.90
73277;DHT22;61501;43.316;5.372;2023-12-28T03:07:37;11.40;99.90
73277;DHT22;61501;43.316;5.372;2023-12-28T03:10:04;11.50;99.90
73277;DHT22;61501;43.316;5.372;2023-12-28T03:12:30;11.50;99.90
73277;DHT22;61501;43.316;5.372;2023-12-28T03:14:56;11.50;99.90
73277;DHT22;61501;43.316;5.372;2023-12-28T03:17:22;11.50;99.90
73277;DHT22;61501;43.316;5.372;2023-12-28T03:19:48;11.50;99.90
73277;DHT22;61501;43.316;5.372;2023-12-28T03:22:13;11.60;99.90
73277;DHT22;61501;43.316;5.372;2023-12-28T03:24:39;11.50;99.90
73277;DHT22;61501;43.316;5.372;2023-12-28T03:27:06;11.60;99.90
73277;DHT22;61501;43.316;5.372;2023-12-28T03:29:31;11.50;99.90
73277;DHT22;61501;43.316;5.372;2023-12-28T03:31:57;11.60;99.90
73277;DHT22;61501;43.316;5.372;2023-12-28T03:34:24;11.60;99.90
73277;DHT22;61501;43.316;5.372;2023-12-28T03:36:52;11.70;99.90
73277;DHT22;61501;43.316;5.372;2023-12-28T03:39:17;11.60;99.90
73277;DHT22;61501;43.316;5.372;2023-12-28T03:41:43;11.70;99.90
73277;DHT22;61501;43.316;5.372;2023-12-28T03:44:09;11.70;99.90
73277;DHT22;61501;43.316;5.372;2023-12-28T03:46:34;11.70;99.90
73277;DHT22;61501;43.316;5.372;2023-12-28T03:49:00;11.60;99.90
73277;DHT22;61501;43.316;5.372;2023-12-28T03:51:26;11.50;99.90
73277;DHT22;61501;43.316;5.372;2023-12-28T03:53:51;11.60;99.90
73277;DHT22;61501;43.316;5.372;2023-12-28T03:56:25;11.60;99.90
73277;DHT22;61501;43.316;5.372;2023-12-28T03:58:51;11.60;99.90
73277;DHT22;61501;43.316;5.372;2023-12-28T04:01:18;11.60;99.90
73277;DHT22;61501;43.316;5.372;2023-12-28T04:03:44;11.60;99.90
73277;DHT22;61501;43.316;5.372;2023-12-28T04:06:10;11.60;99.90
73277;DHT22;61501;43.316;5.372;2023-12-28T04:08:36;11.50;99.90
73277;DHT22;61501;43.316;5.372;2023-12-28T04:11:02;11.60;99.90
73277;DHT22;61501;43.316;5.372;2023-12-28T04:13:27;11.60;99.90
73277;DHT22;61501;43.316;5.372;2023-12-28T04:15:53;11.60;99.90
73277;DHT22;61501;43.316;5.372;2023-12-28T04:18:18;11.60;99.90
73277;DHT22;61501;43.316;5.372;2023-12-28T04:20:46;11.50;99.90
73277;DHT22;61501;43.316;5.372;2023-12-28T04:23:11;11.60;99.90
73277;DHT22;61501;43.316;5.372;2023-12-28T04:25:37;11.60;99.90
73277;DHT22;61501;43.316;5.372;2023-12-28T04:28:03;11.60;99.90
73277;DHT22;61501;43.316;5.372;2023-12-28T04:30:28;11.60;99.90
73277;DHT22;61501;43.316;5.372;2023-12-28T04:32:54;11.60;99.90
73277;DHT22;61501;43.316;5.372;2023-12-28T04:35:20;11.70;99.90
73277;DHT22;61501;43.316;5.372;2023-12-28T04:37:45;11.70;99.90
73277;DHT22;61501;43.316;5.372;2023-12-28T04:40:11;11.60;99.90
73277;DHT22;61501;43.316;5.372;2023-12-28T04:42:36;11.70;99.90
73277;DHT22;61501;43.316;5.372;2023-12-28T04:45:02;11.70;99.90
73277;DHT22;61501;43.316;5.372;2023-12-28T04:47:28;11.60;99.90
73277;DHT22;61501;43.316;5.372;2023-12-28T04:49:54;11.60;99.90
73277;DHT22;61501;43.316;5.372;2023-12-28T04:52:19;11.60;99.90
73277;DHT22;61501;43.316;5.372;2023-12-28T04:54:45;11.60;99.90
73277;DHT22;61501;43.316;5.372;2023-12-28T04:57:11;11.60;99.90
73277;DHT22;61501;43.316;5.372;2023-12-28T04:59:40;11.60;99.90
73277;DHT22;61501;43.316;5.372;2023-12-28T05:02:06;11.70;99.90
73277;DHT22;61501;43.316;5.372;2023-12-28T05:04:32;11.60;99.90
73277;DHT22;61501;43.316;5.372;2023-12-28T05:06:58;11.70;99.90
73277;DHT22;61501;43.316;5.372;2023-12-28T05:09:23;11.60;99.90
73277;DHT22;61501;43.316;5.372;2023-12-28T05:11:49;11.70;99.90
73277;DHT22;61501;43.316;5.372;2023-12-28T05:14:15;11.60;99.90
73277;DHT22;61501;43.316;5.372;2023-12-28T05:16:40;11.60;99.90
73277;DHT22;61501;43.316;5.372;2023-12-28T05:19:06;11.70;99.90
73277;DHT22;61501;43.316;5.372;2023-12-28T05:21:31;11.70;99.90
73277;DHT22;61501;43.316;5.372;2023-12-28T05:23:57;11.80;99.90
73277;DHT22;61501;43.316;5.372;2023-12-28T05:26:23;11.80;99.90
73277;DHT22;61501;43.316;5.372;2023-12-28T05:28:49;11.80;99.90
73277;DHT22;61501;43.316;5.372;2023-12-28T05:31:15;11.70;99.90
73277;DHT22;61501;43.316;5.372;2023-12-28T05:33:40;11.70;99.90
73277;DHT22;61501;43.316;5.372;2023-12-28T05:36:06;11.70;99.90
73277;DHT22;61501;43.316;5.372;2023-12-28T05:38:32;11.70;99.90
73277;DHT22;61501;43.316;5.372;2023-12-28T05:40:59;11.70;99.90
73277;DHT22;61501;43.316;5.372;2023-12-28T05:43:25;11.80;99.90
73277;DHT22;61501;43.316;5.372;2023-12-28T05:45:50;11.70;99.90
73277;DHT22;61501;43.316;5.372;2023-12-28T05:48:16;11.80;99.90
73277;DHT22;61501;43.316;5.372;2023-12-28T05:50:42;11.90;99.90
73277;DHT22;61501;43.316;5.372;2023-12-28T05:53:07;11.90;99.90
73277;DHT22;61501;43.316;5.372;2023-12-28T05:55:41;11.90;99.90
73277;DHT22;61501;43.316;5.372;2023-12-28T05:58:07;12.00;99.90
73277;DHT22;61501;43.316;5.372;2023-12-28T06:00:32;12.00;99.90
73277;DHT22;61501;43.316;5.372;2023-12-28T06:02:58;11.90;99.90
73277;DHT22;61501;43.316;5.372;2023-12-28T06:05:24;12.00;99.90
73277;DHT22;61501;43.316;5.372;2023-12-28T06:07:50;12.00;99.90
73277;DHT22;61501;43.316;5.372;2023-12-28T06:10:15;11.90;99.90
73277;DHT22;61501;43.316;5.372;2023-12-28T06:12:41;11.90;99.90
73277;DHT22;61501;43.316;5.372;2023-12-28T06:15:07;11.90;99.90
73277;DHT22;61501;43.316;5.372;2023-12-28T06:17:33;11.90;99.90
73277;DHT22;61501;43.316;5.372;2023-12-28T06:19:58;11.90;99.90
73277;DHT22;61501;43.316;5.372;2023-12-28T06:22:24;11.90;99.90
73277;DHT22;61501;43.316;5.372;2023-12-28T06:24:55;11.90;99.90
73277;DHT22;61501;43.316;5.372;2023-12-28T06:27:22;11.80;99.90
73277;DHT22;61501;43.316;5.372;2023-12-28T06:29:49;11.90;99.90
73277;DHT22;61501;43.316;5.372;2023-12-28T06:32:14;11.80;99.90
73277;DHT22;61501;43.316;5.372;2023-12-28T06:34:40;11.80;99.90
73277;DHT22;61501;43.316;5.372;2023-12-28T06:37:06;11.80;99.90
73277;DHT22;61501;43.316;5.372;2023-12-28T06:39:31;11.80;99.90
73277;DHT22;61501;43.316;5.372;2023-12-28T06:41:57;11.80;99.90
73277;DHT22;61501;43.316;5.372;2023-12-28T06:44:23;11.80;99.90
73277;DHT22;61501;43.316;5.372;2023-12-28T06:46:48;11.80;99.90
73277;DHT22;61501;43.316;5.372;2023-12-28T06:49:14;11.80;99.90
73277;DHT22;61501;43.316;5.372;2023-12-28T06:51:39;11.80;99.90
73277;DHT22;61501;43.316;5.372;2023-12-28T06:54:05;11.80;99.90
73277;DHT22;61501;43.316;5.372;2023-12-28T06:56:31;11.90;99.90
73277;DHT22;61501;43.316;5.372;2023-12-28T06:58:56;11.90;99.90
73277;DHT22;61501;43.316;5.372;2023-12-28T07:01:22;12.00;99.90
73277;DHT22;61501;43.316;5.372;2023-12-28T07:03:48;11.90;99.90
73277;DHT22;61501;43.316;5.372;2023-12-28T07:06:14;11.90;99.90
73277;DHT22;61501;43.316;5.372;2023-12-28T07:08:39;11.90;99.90
73277;DHT22;61501;43.316;5.372;2023-12-28T07:11:05;12.00;99.90
73277;DHT22;61501;43.316;5.372;2023-12-28T07:13:31;12.00;99.90
73277;DHT22;61501;43.316;5.372;2023-12-28T07:15:57;12.00;99.90
73277;DHT22;61501;43.316;5.372;2023-12-28T07:18:22;12.00;99.90
73277;DHT22;61501;43.316;5.372;2023-12-28T07:20:48;12.00;99.90
73277;DHT22;61501;43.316;5.372;2023-12-28T07:23:14;12.00;99.90
73277;DHT22;61501;43.316;5.372;2023-12-28T07:25:40;11.90;99.90
73277;DHT22;61501;43.316;5.372;2023-12-28T07:28:06;12.00;99.90
73277;DHT22;61501;43.316;5.372;2023-12-28T07:30:31;12.00;99.90
73277;DHT22;61501;43.316;5.372;2023-12-28T07:32:57;12.00;99.90
73277;DHT22;61501;43.316;5.372;2023-12-28T07:35:23;12.00;99.90
73277;DHT22;61501;43.316;5.372;2023-12-28T07:37:48;12.00;99.90
73277;DHT22;61501;43.316;5.372;2023-12-28T07:40:15;12.00;99.90
73277;DHT22;61501;43.316;5.372;2023-12-28T07:42:41;12.00;99.90
73277;DHT22;61501;43.316;5.372;2023-12-28T07:45:06;12.10;99.90
73277;DHT22;61501;43.316;5.372;2023-12-28T07:47:32;12.10;99.90
73277;DHT22;61501;43.316;5.372;2023-12-28T07:49:59;12.20;99.90
73277;DHT22;61501;43.316;5.372;2023-12-28T07:52:26;12.20;99.90
73277;DHT22;61501;43.316;5.372;2023-12-28T07:54:51;12.20;99.90
73277;DHT22;61501;43.316;5.372;2023-12-28T07:57:17;12.20;99.90
73277;DHT22;61501;43.316;5.372;2023-12-28T07:59:43;12.20;99.90
73277;DHT22;61501;43.316;5.372;2023-12-28T08:02:09;12.20;99.90
73277;DHT22;61501;43.316;5.372;2023-12-28T08:04:35;12.30;99.90
73277;DHT22;61501;43.316;5.372;2023-12-28T08:07:00;12.40;99.90
73277;DHT22;61501;43.316;5.372;2023-12-28T08:09:26;12.30;99.90
73277;DHT22;61501;43.316;5.372;2023-12-28T08:11:52;12.40;99.90
73277;DHT22;61501;43.316;5.372;2023-12-28T08:14:18;12.40;99.90
73277;DHT22;61501;43.316;5.372;2023-12-28T08:16:44;12.50;99.90
73277;DHT22;61501;43.316;5.372;2023-12-28T08:19:10;12.50;99.90
73277;DHT22;61501;43.316;5.372;2023-12-28T08:21:36;12.60;99.90
73277;DHT22;61501;43.316;5.372;2023-12-28T08:24:02;12.60;99.90
73277;DHT22;61501;43.316;5.372;2023-12-28T08:26:28;12.50;99.90
73277;DHT22;61501;43.316;5.372;2023-12-28T08:28:55;12.60;99.90
73277;DHT22;61501;43.316;5.372;2023-12-28T08:31:21;12.60;99.90
73277;DHT22;61501;43.316;5.372;2023-12-28T08:33:47;12.70;99.90
73277;DHT22;61501;43.316;5.372;2023-12-28T08:36:12;12.60;99.90
73277;DHT22;61501;43.316;5.372;2023-12-28T08:38:38;12.70;99.90
73277;DHT22;61501;43.316;5.372;2023-12-28T08:41:04;12.80;99.90
73277;DHT22;61501;43.316;5.372;2023-12-28T08:43:35;12.80;99.90
73277;DHT22;61501;43.316;5.372;2023-12-28T08:46:01;12.90;99.90
73277;DHT22;61501;43.316;5.372;2023-12-28T08:48:27;12.90;99.90
73277;DHT22;61501;43.316;5.372;2023-12-28T08:50:53;13.00;99.90
73277;DHT22;61501;43.316;5.372;2023-12-28T08:53:18;13.00;99.90
73277;DHT22;61501;43.316;5.372;2023-12-28T08:55:44;13.10;99.90
73277;DHT22;61501;43.316;5.372;2023-12-28T08:58:09;13.10;99.90
73277;DHT22;61501;43.316;5.372;2023-12-28T09:00:35;13.10;99.90
73277;DHT22;61501;43.316;5.372;2023-12-28T09:03:06;13.10;99.90
73277;DHT22;61501;43.316;5.372;2023-12-28T09:05:34;13.00;99.90
73277;DHT22;61501;43.316;5.372;2023-12-28T09:08:00;13.00;99.90
73277;DHT22;61501;43.316;5.372;2023-12-28T09:10:25;13.00;99.90
73277;DHT22;61501;43.316;5.372;2023-12-28T09:12:51;13.00;99.90
73277;DHT22;61501;43.316;5.372;2023-12-28T09:15:16;13.00;99.90
73277;DHT22;61501;43.316;5.372;2023-12-28T09:17:42;13.10;99.90
73277;DHT22;61501;43.316;5.372;2023-12-28T09:20:08;13.20;99.90
73277;DHT22;61501;43.316;5.372;2023-12-28T09:22:34;13.30;99.90
73277;DHT22;61501;43.316;5.372;2023-12-28T09:25:00;13.50;99.90
73277;DHT22;61501;43.316;5.372;2023-12-28T09:27:26;13.50;99.90
73277;DHT22;61501;43.316;5.372;2023-12-28T09:29:52;13.70;99.90
73277;DHT22;61501;43.316;5.372;2023-12-28T09:32:17;13.60;99.90
73277;DHT22;61501;43.316;5.372;2023-12-28T09:34:46;13.80;99.90
73277;DHT22;61501;43.316;5.372;2023-12-28T09:37:11;13.80;99.90
73277;DHT22;61501;43.316;5.372;2023-12-28T09:39:37;13.90;99.90
73277;DHT22;61501;43.316;5.372;2023-12-28T09:42:17;13.90;99.90
73277;DHT22;61501;43.316;5.372;2023-12-28T09:44:47;13.90;99.90
73277;DHT22;61501;43.316;5.372;2023-12-28T09:47:14;13.90;99.90
73277;DHT22;61501;43.316;5.372;2023-12-28T09:49:42;14.00;99.90
73277;DHT22;61501;43.316;5.372;2023-12-28T09:52:08;13.90;99.90
73277;DHT22;61501;43.316;5.372;2023-12-28T09:54:37;13.90;99.90
73277;DHT22;61501;43.316;5.372;2023-12-28T09:57:03;13.80;99.90
73277;DHT22;61501;43.316;5.372;2023-12-28T09:59:30;13.90;99.90
73277;DHT22;61501;43.316;5.372;2023-12-28T10:01:59;13.90;99.90
73277;DHT22;61501;43.316;5.372;2023-12-28T10:04:29;14.00;99.90
73277;DHT22;61501;43.316;5.372;2023-12-28T10:06:54;14.00;99.90
73277;DHT22;61501;43.316;5.372;2023-12-28T10:09:21;14.00;99.90
73277;DHT22;61501;43.316;5.372;2023-12-28T10:11:47;14.00;99.90
73277;DHT22;61501;43.316;5.372;2023-12-28T10:14:13;13.90;99.90
73277;DHT22;61501;43.316;5.372;2023-12-28T10:16:42;14.00;99.90
73277;DHT22;61501;43.316;5.372;2023-12-28T10:19:07;14.10;99.90
73277;DHT22;61501;43.316;5.372;2023-12-28T10:21:33;14.30;99.90
73277;DHT22;61501;43.316;5.372;2023-12-28T10:23:59;14.40;99.90
73277;DHT22;61501;43.316;5.372;2023-12-28T10:26:26;14.70;99.90
73277;DHT22;61501;43.316;5.372;2023-12-28T10:28:59;14.90;99.90
73277;DHT22;61501;43.316;5.372;2023-12-28T10:31:26;15.30;99.90
73277;DHT22;61501;43.316;5.372;2023-12-28T10:33:51;15.40;99.90
73277;DHT22;61501;43.316;5.372;2023-12-28T10:36:19;15.60;99.90
73277;DHT22;61501;43.316;5.372;2023-12-28T10:38:45;15.40;99.90
73277;DHT22;61501;43.316;5.372;2023-12-28T10:41:14;15.40;99.90
73277;DHT22;61501;43.316;5.372;2023-12-28T10:44:19;15.30;99.90
73277;DHT22;61501;43.316;5.372;2023-12-28T10:46:48;15.10;99.90
73277;DHT22;61501;43.316;5.372;2023-12-28T10:49:17;15.10;99.90
73277;DHT22;61501;43.316;5.372;2023-12-28T10:51:50;15.10;99.90
73277;DHT22;61501;43.316;5.372;2023-12-28T11:00:04;15.60;99.90
73277;DHT22;61501;43.316;5.372;2023-12-28T11:02:39;15.70;99.90
73277;DHT22;61501;43.316;5.372;2023-12-28T11:05:07;15.70;99.90
73277;DHT22;61501;43.316;5.372;2023-12-28T11:07:33;15.90;99.90
73277;DHT22;61501;43.316;5.372;2023-12-28T11:10:02;15.80;99.90
73277;DHT22;61501;43.316;5.372;2023-12-28T11:12:30;15.80;99.90
73277;DHT22;61501;43.316;5.372;2023-12-28T11:14:57;15.70;99.90
73277;DHT22;61501;43.316;5.372;2023-12-28T11:17:23;15.60;99.90
73277;DHT22;61501;43.316;5.372;2023-12-28T11:19:53;15.70;99.90
73277;DHT22;61501;43.316;5.372;2023-12-28T11:22:21;15.80;99.90
73277;DHT22;61501;43.316;5.372;2023-12-28T11:24:47;15.70;99.90
73277;DHT22;61501;43.316;5.372;2023-12-28T11:27:13;16.00;99.90
73277;DHT22;61501;43.316;5.372;2023-12-28T11:29:41;15.90;99.90
73277;DHT22;61501;43.316;5.372;2023-12-28T11:32:08;15.80;99.90
73277;DHT22;61501;43.316;5.372;2023-12-28T11:34:35;15.40;99.90
73277;DHT22;61501;43.316;5.372;2023-12-28T11:37:04;15.20;99.90
73277;DHT22;61501;43.316;5.372;2023-12-28T11:39:36;15.40;99.90
73277;DHT22;61501;43.316;5.372;2023-12-28T11:42:08;15.60;99.90
73277;DHT22;61501;43.316;5.372;2023-12-28T11:44:42;15.60;99.90
73277;DHT22;61501;43.316;5.372;2023-12-28T11:47:16;15.60;99.90
73277;DHT22;61501;43.316;5.372;2023-12-28T11:49:46;15.70;99.90
73277;DHT22;61501;43.316;5.372;2023-12-28T11:52:26;15.90;99.90
73277;DHT22;61501;43.316;5.372;2023-12-28T11:54:52;19.10;99.90
73277;DHT22;61501;43.316;5.372;2023-12-28T11:57:18;17.70;99.90
73277;DHT22;61501;43.316;5.372;2023-12-28T11:59:44;17.10;99.90
73277;DHT22;61501;43.316;5.372;2023-12-28T12:02:10;17.50;99.90
73277;DHT22;61501;43.316;5.372;2023-12-28T12:04:37;16.70;99.90
73277;DHT22;61501;43.316;5.372;2023-12-28T12:07:03;21.90;99.90
73277;DHT22;61501;43.316;5.372;2023-12-28T12:09:39;23.70;87.60
73277;DHT22;61501;43.316;5.372;2023-12-28T12:12:06;23.90;79.00
73277;DHT22;61501;43.316;5.372;2023-12-28T12:14:32;24.20;77.60
73277;DHT22;61501;43.316;5.372;2023-12-28T12:17:00;24.00;77.30
73277;DHT22;61501;43.316;5.372;2023-12-28T12:19:26;24.10;77.90
73277;DHT22;61501;43.316;5.372;2023-12-28T12:21:52;26.40;68.20
73277;DHT22;61501;43.316;5.372;2023-12-28T12:24:19;25.20;71.60
73277;DHT22;61501;43.316;5.372;2023-12-28T12:26:51;25.10;68.90
73277;DHT22;61501;43.316;5.372;2023-12-28T12:29:17;24.50;73.00
73277;DHT22;61501;43.316;5.372;2023-12-28T12:31:45;25.50;69.30
73277;DHT22;61501;43.316;5.372;2023-12-28T12:34:13;23.90;73.90
73277;DHT22;61501;43.316;5.372;2023-12-28T12:36:41;22.70;77.90
73277;DHT22;61501;43.316;5.372;2023-12-28T12:39:06;21.80;82.90
73277;DHT22;61501;43.316;5.372;2023-12-28T12:41:35;22.90;80.80
73277;DHT22;61501;43.316;5.372;2023-12-28T12:44:01;24.00;77.00
73277;DHT22;61501;43.316;5.372;2023-12-28T12:46:27;24.50;74.10
73277;DHT22;61501;43.316;5.372;2023-12-28T12:48:57;23.70;75.90
73277;DHT22;61501;43.316;5.372;2023-12-28T12:51:27;21.90;80.10
73277;DHT22;61501;43.316;5.372;2023-12-28T12:54:00;21.40;84.00
73277;DHT22;61501;43.316;5.372;2023-12-28T12:56:26;19.90;89.00
73277;DHT22;61501;43.316;5.372;2023-12-28T12:58:53;18.80;93.40
73277;DHT22;61501;43.316;5.372;2023-12-28T13:01:19;18.40;94.20
73277;DHT22;61501;43.316;5.372;2023-12-28T13:03:45;18.10;96.80
73277;DHT22;61501;43.316;5.372;2023-12-28T13:06:11;17.80;96.40
73277;DHT22;61501;43.316;5.372;2023-12-28T13:08:37;17.60;96.80
73277;DHT22;61501;43.316;5.372;2023-12-28T13:11:03;17.70;95.90
73277;DHT22;61501;43.316;5.372;2023-12-28T13:13:29;17.60;96.30
73277;DHT22;61501;43.316;5.372;2023-12-28T13:15:54;17.80;96.00
73277;DHT22;61501;43.316;5.372;2023-12-28T13:18:20;17.70;94.80
73277;DHT22;61501;43.316;5.372;2023-12-28T13:20:46;16.90;98.10
73277;DHT22;61501;43.316;5.372;2023-12-28T13:23:12;17.10;97.50
73277;DHT22;61501;43.316;5.372;2023-12-28T13:25:37;17.30;97.00
73277;DHT22;61501;43.316;5.372;2023-12-28T13:28:03;17.50;95.70
73277;DHT22;61501;43.316;5.372;2023-12-28T13:30:29;17.10;96.00
73277;DHT22;61501;43.316;5.372;2023-12-28T13:32:55;16.90;97.10
73277;DHT22;61501;43.316;5.372;2023-12-28T13:35:24;17.00;97.10
73277;DHT22;61501;43.316;5.372;2023-12-28T13:37:50;17.30;97.00
73277;DHT22;61501;43.316;5.372;2023-12-28T13:40:15;18.10;94.70
73277;DHT22;61501;43.316;5.372;2023-12-28T13:42:41;17.90;93.60
73277;DHT22;61501;43.316;5.372;2023-12-28T13:45:07;17.30;95.40
73277;DHT22;61501;43.316;5.372;2023-12-28T13:47:33;17.10;96.70
73277;DHT22;61501;43.316;5.372;2023-12-28T13:49:59;17.20;95.70
73277;DHT22;61501;43.316;5.372;2023-12-28T13:52:24;16.60;99.10
73277;DHT22;61501;43.316;5.372;2023-12-28T13:54:50;16.30;99.90
73277;DHT22;61501;43.316;5.372;2023-12-28T13:57:16;16.00;99.90
73277;DHT22;61501;43.316;5.372;2023-12-28T13:59:41;16.00;99.90
73277;DHT22;61501;43.316;5.372;2023-12-28T14:02:07;16.20;99.90
73277;DHT22;61501;43.316;5.372;2023-12-28T14:04:33;16.40;99.90
73277;DHT22;61501;43.316;5.372;2023-12-28T14:06:58;16.40;99.70
73277;DHT22;61501;43.316;5.372;2023-12-28T14:09:24;16.10;99.90
73277;DHT22;61501;43.316;5.372;2023-12-28T14:11:50;15.80;99.90
73277;DHT22;61501;43.316;5.372;2023-12-28T14:14:15;15.80;99.90
73277;DHT22;61501;43.316;5.372;2023-12-28T14:16:41;15.80;99.90
73277;DHT22;61501;43.316;5.372;2023-12-28T14:19:07;15.50;99.90
73277;DHT22;61501;43.316;5.372;2023-12-28T14:21:39;15.40;99.90
73277;DHT22;61501;43.316;5.372;2023-12-28T14:24:05;15.40;99.90
73277;DHT22;61501;43.316;5.372;2023-12-28T14:26:34;15.50;99.90
73277;DHT22;61501;43.316;5.372;2023-12-28T14:29:01;15.50;99.90
73277;DHT22;61501;43.316;5.372;2023-12-28T14:31:31;15.50;99.90
73277;DHT22;61501;43.316;5.372;2023-12-28T14:33:56;15.50;99.90
73277;DHT22;61501;43.316;5.372;2023-12-28T14:36:32;15.50;99.90
73277;DHT22;61501;43.316;5.372;2023-12-28T14:39:03;15.50;99.90
73277;DHT22;61501;43.316;5.372;2023-12-28T14:41:31;15.50;99.90
73277;DHT22;61501;43.316;5.372;2023-12-28T14:43:57;15.40;99.90
73277;DHT22;61501;43.316;5.372;2023-12-28T14:46:24;15.30;99.90
73277;DHT22;61501;43.316;5.372;2023-12-28T14:48:50;15.20;99.90
73277;DHT22;61501;43.316;5.372;2023-12-28T14:51:15;15.00;99.90
73277;DHT22;61501;43.316;5.372;2023-12-28T14:53:41;15.00;99.90
73277;DHT22;61501;43.316;5.372;2023-12-28T14:56:07;14.90;99.90
73277;DHT22;61501;43.316;5.372;2023-12-28T14:58:32;14.80;99.90
73277;DHT22;61501;43.316;5.372;2023-12-28T15:00:58;14.80;99.90
73277;DHT22;61501;43.316;5.372;2023-12-28T15:03:24;14.80;99.90
73277;DHT22;61501;43.316;5.372;2023-12-28T15:05:51;14.80;99.90
73277;DHT22;61501;43.316;5.372;2023-12-28T15:08:17;14.80;99.90
73277;DHT22;61501;43.316;5.372;2023-12-28T15:10:43;14.90;99.90
73277;DHT22;61501;43.316;5.372;2023-12-28T15:13:10;14.80;99.90
73277;DHT22;61501;43.316;5.372;2023-12-28T15:15:36;14.80;99.90
73277;DHT22;61501;43.316;5.372;2023-12-28T15:18:02;14.80;99.90
73277;DHT22;61501;43.316;5.372;2023-12-28T15:20:28;14.80;99.90
73277;DHT22;61501;43.316;5.372;2023-12-28T15:22:55;14.80;99.90
73277;DHT22;61501;43.316;5.372;2023-12-28T15:25:21;14.70;99.90
73277;DHT22;61501;43.316;5.372;2023-12-28T15:27:47;14.70;99.90
73277;DHT22;61501;43.316;5.372;2023-12-28T15:30:13;14.70;99.90
73277;DHT22;61501;43.316;5.372;2023-12-28T15:32:39;14.60;99.90